createdAt,value
2022-08-12T00:00:18.501Z,71.77
2022-08-12T00:06:00.485Z,71.70
2022-08-12T00:11:20.698Z,72.36
2022-08-12T00:16:40.873Z,72.46
2022-08-12T00:22:01.760Z,72.24
2022-08-12T00:27:25.118Z,72.39
2022-08-12T00:32:54.783Z,74.26
2022-08-12T00:38:21.136Z,75.25
2022-08-12T00:43:24.673Z,74.02
2022-08-12T00:48:26.728Z,73.88
2022-08-12T00:53:29.618Z,75.22
2022-08-12T00:58:32.457Z,74.93
2022-08-12T01:03:56.127Z,74.18
2022-08-12T01:09:19.866Z,75.45
2022-08-12T01:14:25.998Z,75.20
2022-08-12T01:19:27.777Z,76.04
2022-08-12T01:24:31.170Z,76.66
2022-08-12T01:29:36.495Z,75.00
2022-08-12T01:34:41.360Z,77.35
2022-08-12T01:40:34.587Z,76.44
2022-08-12T01:45:10.433Z,76.21
2022-08-12T01:50:33.403Z,77.28
2022-08-12T01:55:38.366Z,78.06
2022-08-12T02:00:54.835Z,78.46
2022-08-12T02:06:25.030Z,79.15
2022-08-12T02:11:30.476Z,78.59
2022-08-12T02:17:13.275Z,78.00
2022-08-12T02:22:17.669Z,77.88
2022-08-12T02:27:21.664Z,77.87
2022-08-12T02:32:23.465Z,79.52
2022-08-12T02:37:28.339Z,80.03
2022-08-12T02:42:34.113Z,79.87
2022-08-12T02:48:00.934Z,79.96
2022-08-12T02:53:04.479Z,80.03
2022-08-12T02:58:12.387Z,80.07
2022-08-12T03:03:19.429Z,80.67
2022-08-12T03:08:32.690Z,81.58
2022-08-12T03:13:40.294Z,82.02
2022-08-12T03:18:46.049Z,81.34
2022-08-12T03:23:49.195Z,82.83
2022-08-12T03:28:51.902Z,82.70
2022-08-12T03:34:01.241Z,82.66
2022-08-12T03:39:16.001Z,82.63
2022-08-12T03:44:45.970Z,82.57
2022-08-12T03:50:06.783Z,83.33
2022-08-12T03:55:27.109Z,83.88
2022-08-12T04:00:30.897Z,84.18
2022-08-12T04:05:54.687Z,83.15
2022-08-12T04:11:13.904Z,83.24
2022-08-12T04:16:17.328Z,83.68
2022-08-12T04:21:19.462Z,83.80
2022-08-12T04:26:21.466Z,83.91
2022-08-12T04:31:34.423Z,84.55
2022-08-12T04:36:40.558Z,83.58
2022-08-12T04:41:57.513Z,82.36
2022-08-12T04:47:00.534Z,80.29
2022-08-12T04:52:03.316Z,79.06
2022-08-12T04:57:06.105Z,77.03
2022-08-12T05:02:09.545Z,76.48
2022-08-12T05:07:18.614Z,74.81
2022-08-12T05:12:20.353Z,74.64
2022-08-12T05:17:22.023Z,74.74
2022-08-12T05:22:28.917Z,71.76
2022-08-12T05:27:30.579Z,70.13
2022-08-12T05:32:32.830Z,69.95
2022-08-12T05:37:35.137Z,69.68
2022-08-12T05:42:36.879Z,69.14
2022-08-12T05:47:53.311Z,70.95
2022-08-12T05:52:55.540Z,71.58
2022-08-12T05:57:57.692Z,70.17
2022-08-12T06:03:03.191Z,69.85
2022-08-12T06:08:07.129Z,67.50
2022-08-12T06:13:09.340Z,66.85
2022-08-12T06:18:16.295Z,65.14
2022-08-12T06:23:18.184Z,59.74
2022-08-12T06:28:21.268Z,51.32
2022-08-12T06:33:24.999Z,49.79
2022-08-12T06:38:46.284Z,51.69
2022-08-12T06:44:06.721Z,54.18
2022-08-12T06:49:13.370Z,54.56
2022-08-12T06:54:15.160Z,54.15
2022-08-12T06:59:35.651Z,55.33
2022-08-12T07:04:39.215Z,51.87
2022-08-12T07:10:06.762Z,50.74
2022-08-12T07:15:07.647Z,57.50
2022-08-12T07:20:29.790Z,56.36
2022-08-12T07:25:37.922Z,57.14
2022-08-12T07:30:45.776Z,56.52
2022-08-12T07:35:48.619Z,55.32
2022-08-12T07:40:53.713Z,55.58
2022-08-12T07:45:55.781Z,53.48
2022-08-12T07:50:57.438Z,53.98
2022-08-12T07:55:59.218Z,50.76
2022-08-12T08:01:02.375Z,46.55
2022-08-12T08:06:19.928Z,38.94
2022-08-12T08:11:42.263Z,34.85
2022-08-12T08:16:43.992Z,35.05
2022-08-12T08:21:46.553Z,33.24
2022-08-12T08:26:50.484Z,34.02
2022-08-12T08:31:58.900Z,33.60
2022-08-12T08:37:00.580Z,35.16
2022-08-12T08:42:25.118Z,35.59
2022-08-12T08:47:26.790Z,40.30
2022-08-12T08:52:39.094Z,46.67
2022-08-12T08:57:51.130Z,46.99
2022-08-12T09:02:59.044Z,45.56
2022-08-12T09:08:14.345Z,44.56
2022-08-12T09:14:10.746Z,42.18
2022-08-12T09:18:53.731Z,37.71
2022-08-12T09:24:06.047Z,40.55
2022-08-12T09:29:12.054Z,37.43
2022-08-12T09:34:27.532Z,34.41
2022-08-12T09:40:02.175Z,32.11
2022-08-12T09:46:06.219Z,35.21
2022-08-12T09:50:58.673Z,38.08
2022-08-12T09:56:41.182Z,36.63
2022-08-12T10:01:25.705Z,36.89
2022-08-12T10:06:53.909Z,37.27
2022-08-12T10:12:15.945Z,35.23
2022-08-12T10:17:32.967Z,41.23
2022-08-12T10:22:39.566Z,45.72
2022-08-12T10:28:03.467Z,47.33
2022-08-12T10:33:18.165Z,48.49
2022-08-12T10:38:39.345Z,49.01
2022-08-12T10:43:54.864Z,49.17
2022-08-12T10:49:05.564Z,49.54
2022-08-12T10:54:19.787Z,49.28
2022-08-12T11:00:31.445Z,49.42
2022-08-12T11:04:59.035Z,43.64
2022-08-12T11:10:20.246Z,42.00
2022-08-12T11:16:03.023Z,41.37
2022-08-12T11:20:52.188Z,38.11
2022-08-12T11:25:58.080Z,40.30
2022-08-12T11:31:00.804Z,42.57
2022-08-12T11:36:16.729Z,41.87
2022-08-12T11:41:27.985Z,41.70
2022-08-12T11:46:37.454Z,38.54
2022-08-12T11:51:39.935Z,39.68
2022-08-12T11:56:42.907Z,39.16
2022-08-12T12:02:03.067Z,37.11
2022-08-12T12:07:11.181Z,39.38
2022-08-12T12:12:13.233Z,38.91
2022-08-12T12:17:14.890Z,40.07
2022-08-12T12:22:23.198Z,38.71
2022-08-12T12:27:42.273Z,36.29
2022-08-12T12:32:53.470Z,38.90
2022-08-12T12:38:12.175Z,42.56
2022-08-12T12:43:15.046Z,43.07
2022-08-12T12:48:18.717Z,41.29
2022-08-12T12:54:06.868Z,41.85
2022-08-12T12:58:44.560Z,42.39
2022-08-12T13:03:48.859Z,40.12
2022-08-12T13:08:55.528Z,39.46
2022-08-12T13:14:06.799Z,38.69
2022-08-12T13:19:10.346Z,37.63
2022-08-12T13:24:12.154Z,38.24
2022-08-12T13:29:14.309Z,36.15
2022-08-12T13:34:33.947Z,36.79
2022-08-12T13:39:39.180Z,38.19
2022-08-12T13:44:41.062Z,38.97
2022-08-12T13:49:55.417Z,40.12
2022-08-12T13:54:57.759Z,40.68
2022-08-12T14:00:00.426Z,40.54
2022-08-12T14:05:02.333Z,40.58
2022-08-12T14:10:36.539Z,40.36
2022-08-12T14:15:41.397Z,40.15
2022-08-12T14:20:47.611Z,40.75
2022-08-12T14:25:51.395Z,39.65
2022-08-12T14:31:02.496Z,40.18
2022-08-12T14:36:07.655Z,40.28
2022-08-12T14:41:12.429Z,40.52
2022-08-12T14:46:19.112Z,40.22
2022-08-12T14:52:56.544Z,39.35
2022-08-12T15:02:07.264Z,40.73
2022-08-12T15:07:34.453Z,40.15
2022-08-12T15:12:35.573Z,40.12
2022-08-12T15:17:42.345Z,39.89
2022-08-12T15:22:53.881Z,40.51
2022-08-12T15:28:04.089Z,38.94
2022-08-12T15:33:14.963Z,39.36
2022-08-12T15:38:25.192Z,39.54
2022-08-12T15:44:15.823Z,40.25
2022-08-12T15:48:53.619Z,39.97
2022-08-12T15:54:33.400Z,39.03
2022-08-12T15:59:32.622Z,39.59
2022-08-12T16:04:51.517Z,39.48
2022-08-12T16:10:06.378Z,39.25
2022-08-12T16:15:11.193Z,39.18
2022-08-12T16:20:33.065Z,41.52
2022-08-12T16:26:02.974Z,42.03
2022-08-12T16:31:00.360Z,42.04
2022-08-12T16:36:06.161Z,40.73
2022-08-12T16:41:13.538Z,41.29
2022-08-12T16:46:32.238Z,41.26
2022-08-12T16:51:40.373Z,41.39
2022-08-12T16:56:55.554Z,41.63
2022-08-12T17:02:00.500Z,40.95
2022-08-12T17:07:02.561Z,41.45
2022-08-12T17:12:05.108Z,41.91
2022-08-12T17:17:18.359Z,41.62
2022-08-12T17:22:30.420Z,41.09
2022-08-12T17:27:34.182Z,41.72
2022-08-12T17:32:39.729Z,42.30
2022-08-12T17:37:43.043Z,42.98
2022-08-12T17:42:47.499Z,43.33
2022-08-12T17:48:04.794Z,43.61
2022-08-12T17:53:10.154Z,43.46
2022-08-12T17:58:14.060Z,43.68
2022-08-12T18:04:05.537Z,43.98
2022-08-12T18:08:55.120Z,44.73
2022-08-12T18:13:57.077Z,46.68
2022-08-12T18:19:02.041Z,48.00
2022-08-12T18:24:04.597Z,48.19
2022-08-12T18:29:27.227Z,48.95
2022-08-12T18:34:45.332Z,49.78
2022-08-12T18:40:18.064Z,50.22
2022-08-12T18:45:21.885Z,51.65
2022-08-12T18:50:24.607Z,52.09
2022-08-12T18:55:27.097Z,52.70
2022-08-12T19:00:40.451Z,54.25
2022-08-12T19:05:53.902Z,54.23
2022-08-12T19:11:16.183Z,54.79
2022-08-12T19:16:21.497Z,54.99
2022-08-12T19:21:24.710Z,56.17
2022-08-12T19:26:27.895Z,57.24
2022-08-12T19:31:56.472Z,57.98
2022-08-12T19:37:04.288Z,58.56
2022-08-12T19:42:06.661Z,58.39
2022-08-12T19:47:12.024Z,58.80
2022-08-12T19:52:21.023Z,59.58
2022-08-12T19:57:25.865Z,61.11
2022-08-12T20:02:32.977Z,61.23
2022-08-12T20:07:42.839Z,62.79
2022-08-12T20:13:18.312Z,61.83
2022-08-12T20:18:53.267Z,62.56
2022-08-12T20:24:00.468Z,62.74
2022-08-12T20:29:06.553Z,63.78
2022-08-12T20:34:08.589Z,64.02
2022-08-12T20:39:34.402Z,65.73
2022-08-12T20:44:37.728Z,65.84
2022-08-12T20:49:43.907Z,66.22
2022-08-12T20:54:52.569Z,65.78
2022-08-12T20:59:54.230Z,67.43
2022-08-12T21:05:20.335Z,68.09
2022-08-12T21:10:26.542Z,67.69
2022-08-12T21:15:30.788Z,67.40
2022-08-12T21:20:52.965Z,67.27
2022-08-12T21:25:56.227Z,68.67
2022-08-12T21:32:35.917Z,69.83
2022-08-12T21:36:22.733Z,69.02
2022-08-12T21:41:37.823Z,68.36
2022-08-12T21:46:53.585Z,69.05
2022-08-12T21:51:56.538Z,69.82
2022-08-12T21:56:58.934Z,69.67
2022-08-12T22:02:00.609Z,69.75
2022-08-12T22:07:02.634Z,70.27
2022-08-12T22:12:23.367Z,70.71
2022-08-12T22:17:49.583Z,71.30
2022-08-12T22:22:56.701Z,71.78
2022-08-12T22:28:17.306Z,71.92
2022-08-12T22:33:26.398Z,72.18
2022-08-12T22:38:29.797Z,71.97
2022-08-12T22:44:00.493Z,72.15
2022-08-12T22:49:03.538Z,73.18
2022-08-12T22:54:35.011Z,74.74
2022-08-12T22:59:51.163Z,74.68
2022-08-12T23:04:52.535Z,74.54
2022-08-12T23:09:56.902Z,75.19
2022-08-12T23:14:58.547Z,75.43
2022-08-12T23:20:01.699Z,75.34
2022-08-12T23:25:03.614Z,75.00
2022-08-12T23:30:18.740Z,75.50
2022-08-12T23:35:22.683Z,75.92
2022-08-12T23:40:25.574Z,75.29
2022-08-12T23:45:31.988Z,76.73
2022-08-12T23:50:35.812Z,77.23
2022-08-12T23:55:40.596Z,78.13
